Time;durP1;ratioP1;P1;durP2;ratioP2;P2;SDS_P1;SDS_P2;PMS_P1;PMS_P2;Temp;Humidity;BMP_temperature;BMP_pressure;BME280_temperature;BME280_humidity;BME280_pressure;Samples;Min_cycle;Max_cycle;Signal;HPM_P1;HPM_P2
2023/04/21 00:01:47;;;;;;;7.20;3.70;;;;;;;;;;5054808;28;20028;-66
2023/04/21 00:04:13;;;;;;;6.00;3.83;;;;;;;;;;5053979;28;20021;-66
2023/04/21 00:06:40;;;;;;;8.43;4.00;;;;;;;;;;5054237;28;20433;-65
2023/04/21 00:09:07;;;;;;;5.05;3.33;;;;;;;;;;5054290;28;20013;-65
2023/04/21 00:11:33;;;;;;;7.00;3.65;;;;;;;;;;5054318;28;20028;-65
2023/04/21 00:14:00;;;;;;;6.18;3.85;;;;;;;;;;5053105;28;20406;-65
2023/04/21 00:16:26;;;;;;;7.93;3.95;;;;;;;;;;5054214;28;20032;-65
2023/04/21 00:18:53;;;;;;;4.65;3.83;;;;;;;;;;5053628;28;20025;-65
2023/04/21 00:21:19;;;;;;;8.82;4.32;;;;;;;;;;5053024;28;20017;-66
2023/04/21 00:23:46;;;;;;;6.68;3.75;;;;;;;;;;5052450;28;20029;-65
2023/04/21 00:26:12;;;;;;;6.60;3.90;;;;;;;;;;5053382;28;20025;-65
2023/04/21 00:28:38;;;;;;;8.00;3.92;;;;;;;;;;5053376;28;20045;-65
2023/04/21 00:31:05;;;;;;;6.20;4.00;;;;;;;;;;5053489;28;20025;-66
2023/04/21 00:33:31;;;;;;;6.45;4.07;;;;;;;;;;5053409;28;20033;-65
2023/04/21 00:35:58;;;;;;;6.30;4.30;;;;;;;;;;5054434;28;20044;-65
2023/04/21 00:38:24;;;;;;;5.07;3.80;;;;;;;;;;5053102;28;20029;-65
2023/04/21 00:40:51;;;;;;;4.57;3.60;;;;;;;;;;5053725;28;20013;-65
2023/04/21 00:43:17;;;;;;;6.35;4.05;;;;;;;;;;5053164;28;20021;-65
2023/04/21 00:45:45;;;;;;;5.18;3.78;;;;;;;;;;5052070;28;20082;-63
2023/04/21 00:48:12;;;;;;;7.22;3.85;;;;;;;;;;5053635;28;20385;-65
2023/04/21 00:50:38;;;;;;;6.65;4.45;;;;;;;;;;5053611;28;20017;-65
2023/04/21 00:53:05;;;;;;;6.78;3.75;;;;;;;;;;5053086;28;20033;-65
2023/04/21 00:55:32;;;;;;;6.65;3.72;;;;;;;;;;5035456;28;20025;-65
2023/04/21 00:57:58;;;;;;;8.38;4.60;;;;;;;;;;5053203;28;20035;-65
2023/04/21 01:00:24;;;;;;;6.55;4.07;;;;;;;;;;5053106;28;20499;-65
2023/04/21 01:02:50;;;;;;;5.18;3.80;;;;;;;;;;5053163;28;20021;-66
2023/04/21 01:05:17;;;;;;;4.25;3.38;;;;;;;;;;5052831;28;20028;-65
2023/04/21 01:07:44;;;;;;;4.47;3.53;;;;;;;;;;5052984;28;20032;-65
2023/04/21 01:10:10;;;;;;;4.97;3.70;;;;;;;;;;5052546;28;20037;-65
2023/04/21 01:12:44;;;;;;;7.70;3.78;;;;;;;;;;5052839;28;20524;-65
2023/04/21 01:15:11;;;;;;;4.93;3.85;;;;;;;;;;5053140;28;20021;-64
2023/04/21 01:17:39;;;;;;;7.13;3.80;;;;;;;;;;5053366;28;20025;-65
2023/04/21 01:20:09;;;;;;;7.40;4.03;;;;;;;;;;5052552;28;20025;-65
2023/04/21 01:22:40;;;;;;;7.38;4.57;;;;;;;;;;5053042;28;20486;-65
2023/04/21 01:25:09;;;;;;;4.60;3.30;;;;;;;;;;5052831;28;20037;-65
2023/04/21 01:27:35;;;;;;;7.18;3.85;;;;;;;;;;5052251;28;20393;-65
2023/04/21 01:30:02;;;;;;;6.43;3.90;;;;;;;;;;5052309;28;20059;-66
2023/04/21 01:32:29;;;;;;;9.00;3.65;;;;;;;;;;5051933;28;20033;-65
2023/04/21 01:34:56;;;;;;;10.75;3.95;;;;;;;;;;5052733;28;20396;-65
2023/04/21 01:37:24;;;;;;;5.22;3.80;;;;;;;;;;5052349;28;20478;-65
2023/04/21 01:39:53;;;;;;;6.72;3.80;;;;;;;;;;5052045;28;20036;-65
2023/04/21 01:42:20;;;;;;;4.55;3.75;;;;;;;;;;5052088;28;20023;-66
2023/04/21 01:44:48;;;;;;;8.07;3.40;;;;;;;;;;5052323;28;20456;-66
2023/04/21 01:47:15;;;;;;;6.70;3.95;;;;;;;;;;5051121;28;20025;-65
2023/04/21 01:49:41;;;;;;;6.57;3.95;;;;;;;;;;5052647;28;20035;-65
2023/04/21 01:52:07;;;;;;;6.47;3.80;;;;;;;;;;5051977;28;20045;-65
2023/04/21 01:54:34;;;;;;;5.82;3.90;;;;;;;;;;5051939;28;20478;-65
2023/04/21 01:57:01;;;;;;;5.57;3.80;;;;;;;;;;5051064;28;20059;-65
2023/04/21 01:59:27;;;;;;;6.72;3.83;;;;;;;;;;5052119;28;20029;-65
2023/04/21 02:01:54;;;;;;;7.38;3.90;;;;;;;;;;5052448;28;20021;-66
2023/04/21 02:04:20;;;;;;;8.40;4.38;;;;;;;;;;5052343;28;20025;-65
2023/04/21 02:06:46;;;;;;;7.10;3.85;;;;;;;;;;5051525;28;20351;-65
2023/04/21 02:09:13;;;;;;;5.07;4.10;;;;;;;;;;5051814;28;20033;-65
2023/04/21 02:11:39;;;;;;;7.50;4.05;;;;;;;;;;5052347;28;20500;-65
2023/04/21 02:14:05;;;;;;;6.00;3.75;;;;;;;;;;5050906;28;20068;-65
2023/04/21 02:16:32;;;;;;;6.30;4.00;;;;;;;;;;5052052;28;20025;-65
2023/04/21 02:18:58;;;;;;;5.72;4.00;;;;;;;;;;5052229;28;20519;-64
2023/04/21 02:21:25;;;;;;;5.25;3.95;;;;;;;;;;5052224;28;20032;-65
2023/04/21 02:23:51;;;;;;;4.65;3.95;;;;;;;;;;5052045;28;20484;-65
2023/04/21 02:26:19;;;;;;;5.63;4.18;;;;;;;;;;5050932;28;20032;-65
2023/04/21 02:28:46;;;;;;;8.02;4.50;;;;;;;;;;5052094;28;20047;-65
2023/04/21 02:31:12;;;;;;;9.68;4.45;;;;;;;;;;5051619;28;20484;-65
2023/04/21 02:33:39;;;;;;;5.00;3.78;;;;;;;;;;5052312;28;20041;-65
2023/04/21 02:36:05;;;;;;;7.38;4.70;;;;;;;;;;5050356;28;20037;-65
2023/04/21 02:38:32;;;;;;;7.10;4.00;;;;;;;;;;5051984;28;20032;-65
2023/04/21 02:40:58;;;;;;;9.07;4.45;;;;;;;;;;5051689;28;20021;-65
2023/04/21 02:43:24;;;;;;;6.78;4.10;;;;;;;;;;5051587;28;20025;-65
2023/04/21 02:45:51;;;;;;;5.70;4.20;;;;;;;;;;5055393;28;20420;-65
2023/04/21 02:48:21;;;;;;;6.00;4.10;;;;;;;;;;5055583;28;20025;-65
2023/04/21 02:50:52;;;;;;;5.97;4.30;;;;;;;;;;5055086;28;20037;-65
2023/04/21 02:53:21;;;;;;;9.38;4.43;;;;;;;;;;5055065;28;20448;-65
2023/04/21 02:55:47;;;;;;;5.20;3.90;;;;;;;;;;5055844;28;20028;-65
2023/04/21 02:58:15;;;;;;;6.15;4.20;;;;;;;;;;5055374;28;20025;-65
2023/04/21 03:00:41;;;;;;;6.55;4.15;;;;;;;;;;5054793;28;20385;-65
2023/04/21 03:03:08;;;;;;;6.03;4.38;;;;;;;;;;5055410;28;20519;-65
2023/04/21 03:05:34;;;;;;;6.25;4.03;;;;;;;;;;5055116;28;20035;-64
2023/04/21 03:08:00;;;;;;;4.97;3.88;;;;;;;;;;5055349;28;20033;-65
2023/04/21 03:10:27;;;;;;;6.80;4.20;;;;;;;;;;5055173;28;20013;-65
2023/04/21 03:12:54;;;;;;;6.85;3.70;;;;;;;;;;5053540;28;20029;-65
2023/04/21 03:15:21;;;;;;;6.18;4.07;;;;;;;;;;5055178;28;20025;-65
2023/04/21 03:17:48;;;;;;;7.47;4.93;;;;;;;;;;5054810;28;20486;-65
2023/04/21 03:20:14;;;;;;;6.75;4.32;;;;;;;;;;5054555;28;20378;-65
2023/04/21 03:22:41;;;;;;;5.07;3.83;;;;;;;;;;5054573;28;20021;-66
2023/04/21 03:25:07;;;;;;;6.68;4.22;;;;;;;;;;5054644;28;20035;-65
2023/04/21 03:27:34;;;;;;;8.27;4.72;;;;;;;;;;5054900;28;20028;-65
2023/04/21 03:30:00;;;;;;;5.93;4.28;;;;;;;;;;5054432;28;20070;-66
2023/04/21 03:32:27;;;;;;;7.38;4.60;;;;;;;;;;5054972;28;20045;-66
2023/04/21 03:34:53;;;;;;;7.65;4.55;;;;;;;;;;5054765;28;20025;-65
2023/04/21 03:37:19;;;;;;;8.43;4.60;;;;;;;;;;5054432;28;20401;-65
2023/04/21 03:39:46;;;;;;;8.00;4.50;;;;;;;;;;5054550;28;20387;-65
2023/04/21 03:42:12;;;;;;;7.50;4.20;;;;;;;;;;5054554;28;20435;-65
2023/04/21 03:44:38;;;;;;;7.32;4.35;;;;;;;;;;5054642;28;20029;-65
2023/04/21 03:47:05;;;;;;;8.07;4.28;;;;;;;;;;5054577;28;20389;-65
2023/04/21 03:49:33;;;;;;;6.50;4.47;;;;;;;;;;5054616;28;20032;-65
2023/04/21 03:51:59;;;;;;;7.45;4.30;;;;;;;;;;5054431;28;20019;-65
2023/04/21 03:54:26;;;;;;;9.52;4.47;;;;;;;;;;5054247;28;20033;-65
2023/04/21 03:56:53;;;;;;;8.57;4.90;;;;;;;;;;5054192;28;20490;-65
2023/04/21 03:59:19;;;;;;;5.63;4.38;;;;;;;;;;5054233;28;20082;-65
2023/04/21 04:01:45;;;;;;;5.68;4.05;;;;;;;;;;5053914;28;20033;-65
2023/04/21 04:04:12;;;;;;;4.75;3.92;;;;;;;;;;5053719;28;20496;-65
2023/04/21 04:06:38;;;;;;;6.05;4.20;;;;;;;;;;5054571;28;20036;-65
2023/04/21 04:09:04;;;;;;;8.43;3.90;;;;;;;;;;5054316;28;20021;-65
2023/04/21 04:11:31;;;;;;;8.00;4.65;;;;;;;;;;5053733;28;20068;-65
2023/04/21 04:13:58;;;;;;;7.65;4.25;;;;;;;;;;5053459;28;20505;-65
2023/04/21 04:16:25;;;;;;;7.60;4.50;;;;;;;;;;5054455;28;20029;-65
2023/04/21 04:18:51;;;;;;;5.95;4.63;;;;;;;;;;5053683;28;20021;-65
2023/04/21 04:21:17;;;;;;;6.05;4.63;;;;;;;;;;5053723;28;20397;-65
2023/04/21 04:23:44;;;;;;;9.43;4.20;;;;;;;;;;5054039;28;20025;-65
2023/04/21 04:26:10;;;;;;;8.60;4.28;;;;;;;;;;5053900;28;20491;-65
2023/04/21 04:28:37;;;;;;;6.13;4.03;;;;;;;;;;5053628;28;20083;-65
2023/04/21 04:31:03;;;;;;;6.00;4.05;;;;;;;;;;5053256;28;20039;-65
2023/04/21 04:33:29;;;;;;;6.32;4.28;;;;;;;;;;5053629;28;20033;-65
2023/04/21 04:35:57;;;;;;;6.43;4.43;;;;;;;;;;5053221;28;20017;-65
2023/04/21 04:38:23;;;;;;;5.55;4.15;;;;;;;;;;5053240;28;20393;-65
2023/04/21 04:40:53;;;;;;;7.50;4.35;;;;;;;;;;5053054;28;20029;-65
2023/04/21 04:43:19;;;;;;;6.68;4.43;;;;;;;;;;5053242;28;20021;-64
2023/04/21 04:45:46;;;;;;;6.32;4.13;;;;;;;;;;5052843;28;20021;-65
2023/04/21 04:48:12;;;;;;;7.55;4.63;;;;;;;;;;5053535;28;20086;-65
2023/04/21 04:50:39;;;;;;;9.02;4.55;;;;;;;;;;5053289;28;20417;-65
2023/04/21 04:53:05;;;;;;;7.63;4.50;;;;;;;;;;5053335;28;20037;-65
2023/04/21 04:55:32;;;;;;;7.88;4.70;;;;;;;;;;5052971;28;20482;-65
2023/04/21 04:57:58;;;;;;;7.13;4.00;;;;;;;;;;5053036;28;20028;-65
2023/04/21 05:00:25;;;;;;;7.03;4.30;;;;;;;;;;5053374;28;20021;-65
2023/04/21 05:02:52;;;;;;;7.18;4.25;;;;;;;;;;5052712;28;20055;-65
2023/04/21 05:05:19;;;;;;;6.82;4.20;;;;;;;;;;5052898;28;20033;-65
2023/04/21 05:07:45;;;;;;;5.30;3.90;;;;;;;;;;5052327;28;20376;-66
2023/04/21 05:10:11;;;;;;;8.07;4.30;;;;;;;;;;5052877;28;20031;-65
2023/04/21 05:12:38;;;;;;;5.85;4.22;;;;;;;;;;5052884;28;20051;-66
2023/04/21 05:15:05;;;;;;;9.35;3.97;;;;;;;;;;5052810;28;20474;-65
2023/04/21 05:17:32;;;;;;;6.32;3.80;;;;;;;;;;5052286;28;20031;-65
2023/04/21 05:19:59;;;;;;;7.88;4.20;;;;;;;;;;5052856;28;20021;-65
2023/04/21 05:22:25;;;;;;;5.82;3.95;;;;;;;;;;5052524;28;20032;-65
2023/04/21 05:24:52;;;;;;;5.35;4.22;;;;;;;;;;5052666;28;20029;-65
2023/04/21 05:27:18;;;;;;;5.50;4.28;;;;;;;;;;5053093;28;20082;-65
2023/04/21 05:29:45;;;;;;;5.07;4.03;;;;;;;;;;5052629;28;20051;-66
2023/04/21 05:32:11;;;;;;;5.70;4.15;;;;;;;;;;5052056;28;20025;-65
2023/04/21 05:34:38;;;;;;;6.93;4.10;;;;;;;;;;5052152;28;20032;-65
2023/04/21 05:37:04;;;;;;;5.88;4.25;;;;;;;;;;5052673;28;20025;-65
2023/04/21 05:39:31;;;;;;;7.95;4.32;;;;;;;;;;5051299;28;20029;-65
2023/04/21 05:41:57;;;;;;;5.60;4.18;;;;;;;;;;5052042;28;20020;-65
2023/04/21 05:44:24;;;;;;;6.40;3.97;;;;;;;;;;5052549;28;20029;-65
2023/04/21 05:46:50;;;;;;;7.35;4.00;;;;;;;;;;5052062;28;20500;-65
2023/04/21 05:49:17;;;;;;;7.47;4.20;;;;;;;;;;5051959;28;20035;-65
2023/04/21 05:51:43;;;;;;;6.93;4.50;;;;;;;;;;5051936;28;20017;-65
2023/04/21 05:54:09;;;;;;;5.93;3.95;;;;;;;;;;5051748;28;20492;-65
2023/04/21 05:56:36;;;;;;;10.90;3.80;;;;;;;;;;5051809;28;20025;-65
2023/04/21 05:59:02;;;;;;;8.40;3.95;;;;;;;;;;5051844;28;20548;-65
2023/04/21 06:01:29;;;;;;;8.55;4.10;;;;;;;;;;5051843;28;20027;-65
2023/04/21 06:03:55;;;;;;;9.55;4.03;;;;;;;;;;5051752;28;20015;-65
2023/04/21 06:06:22;;;;;;;5.32;4.13;;;;;;;;;;5051940;28;20029;-64
2023/04/21 06:08:48;;;;;;;4.35;3.90;;;;;;;;;;5047778;28;20416;-67
2023/04/21 06:11:15;;;;;;;7.30;4.38;;;;;;;;;;5049546;28;20044;-65
2023/04/21 06:13:41;;;;;;;6.85;4.40;;;;;;;;;;5049843;28;20080;-65
2023/04/21 06:16:07;;;;;;;5.93;3.92;;;;;;;;;;5050643;28;20035;-65
2023/04/21 06:18:34;;;;;;;6.32;4.55;;;;;;;;;;5050762;28;20535;-65
2023/04/21 06:21:00;;;;;;;6.38;4.15;;;;;;;;;;5054969;28;20013;-65
2023/04/21 06:23:26;;;;;;;7.10;4.43;;;;;;;;;;5054663;28;20035;-66
2023/04/21 06:26:03;;;;;;;6.50;4.15;;;;;;;;;;5054809;28;20031;-66
2023/04/21 06:28:33;;;;;;;10.38;4.68;;;;;;;;;;5054854;28;20053;-65
2023/04/21 06:31:00;;;;;;;8.25;4.43;;;;;;;;;;5055006;28;20035;-65
2023/04/21 06:33:27;;;;;;;9.13;4.68;;;;;;;;;;5055199;28;20036;-65
2023/04/21 06:35:53;;;;;;;6.85;4.68;;;;;;;;;;5055064;28;20013;-65
2023/04/21 06:38:20;;;;;;;6.10;3.97;;;;;;;;;;5054934;28;20375;-65
2023/04/21 06:40:46;;;;;;;6.38;4.10;;;;;;;;;;5055157;28;20013;-65
2023/04/21 06:43:13;;;;;;;5.15;3.90;;;;;;;;;;5054235;28;20033;-65
2023/04/21 06:45:39;;;;;;;10.63;4.00;;;;;;;;;;5054748;28;20031;-65
2023/04/21 06:48:05;;;;;;;7.78;3.90;;;;;;;;;;5054960;28;20561;-65
2023/04/21 06:50:32;;;;;;;6.03;3.75;;;;;;;;;;5054540;28;20025;-65
2023/04/21 06:52:58;;;;;;;5.45;4.20;;;;;;;;;;5054771;28;20040;-65
2023/04/21 06:55:24;;;;;;;6.25;3.95;;;;;;;;;;5053074;28;20424;-65
2023/04/21 06:57:50;;;;;;;5.45;3.90;;;;;;;;;;5056077;28;20029;-65
2023/04/21 07:00:17;;;;;;;4.63;3.63;;;;;;;;;;5054208;28;20024;-64
2023/04/21 07:02:43;;;;;;;4.15;3.60;;;;;;;;;;5054260;28;20432;-65
2023/04/21 07:05:10;;;;;;;7.18;3.92;;;;;;;;;;5053414;28;20059;-65
2023/04/21 07:07:36;;;;;;;6.40;3.60;;;;;;;;;;5054376;28;20037;-66
2023/04/21 07:10:02;;;;;;;7.13;5.20;;;;;;;;;;5053424;28;20480;-65
2023/04/21 07:12:28;;;;;;;12.32;9.82;;;;;;;;;;5051369;28;20043;-64
2023/04/21 07:14:55;;;;;;;9.15;6.28;;;;;;;;;;5052454;28;20416;-66
2023/04/21 07:17:21;;;;;;;6.95;5.22;;;;;;;;;;5053327;28;20062;-65
2023/04/21 07:19:47;;;;;;;8.20;4.82;;;;;;;;;;5053577;28;20508;-65
2023/04/21 07:22:14;;;;;;;9.82;4.70;;;;;;;;;;5053784;28;20031;-65
2023/04/21 07:24:40;;;;;;;10.52;4.90;;;;;;;;;;5052919;28;20029;-65
2023/04/21 07:27:06;;;;;;;7.53;3.92;;;;;;;;;;5053544;28;20040;-66
2023/04/21 07:29:33;;;;;;;5.75;4.10;;;;;;;;;;5051106;28;20074;-65
2023/04/21 07:31:59;;;;;;;6.72;4.15;;;;;;;;;;5051921;28;20028;-66
2023/04/21 07:34:25;;;;;;;8.82;4.13;;;;;;;;;;5052515;28;20045;-66
2023/04/21 07:36:52;;;;;;;6.97;4.25;;;;;;;;;;5051027;28;20027;-67
2023/04/21 07:39:18;;;;;;;5.30;4.00;;;;;;;;;;5053120;28;20021;-65
2023/04/21 07:41:45;;;;;;;13.25;5.50;;;;;;;;;;5051536;28;20024;-66
2023/04/21 07:44:11;;;;;;;6.53;5.00;;;;;;;;;;5053142;28;20021;-66
2023/04/21 07:46:37;;;;;;;7.80;3.67;;;;;;;;;;5053538;28;20013;-65
2023/04/21 07:49:04;;;;;;;9.88;3.75;;;;;;;;;;5052619;28;20502;-65
2023/04/21 07:51:30;;;;;;;4.82;3.00;;;;;;;;;;5051632;28;20029;-66
2023/04/21 07:53:57;;;;;;;4.95;3.22;;;;;;;;;;5051838;28;20033;-66
2023/04/21 07:56:23;;;;;;;5.50;2.88;;;;;;;;;;5062481;28;20397;-65
2023/04/21 07:58:49;;;;;;;5.13;2.78;;;;;;;;;;5054716;28;20025;-66
2023/04/21 08:01:16;;;;;;;8.02;2.83;;;;;;;;;;5051635;28;20037;-66
2023/04/21 08:03:43;;;;;;;7.20;2.83;;;;;;;;;;5052686;28;20028;-65
2023/04/21 08:06:09;;;;;;;8.27;2.90;;;;;;;;;;5052637;28;20433;-66
2023/04/21 08:08:36;;;;;;;5.38;2.70;;;;;;;;;;5052481;28;20025;-66
2023/04/21 08:11:02;;;;;;;2.67;2.45;;;;;;;;;;5053577;28;20017;-66
2023/04/21 08:13:28;;;;;;;14.45;2.58;;;;;;;;;;5052366;28;20095;-65
2023/04/21 08:15:55;;;;;;;4.47;2.25;;;;;;;;;;5052321;28;20013;-65
2023/04/21 08:18:22;;;;;;;5.43;2.47;;;;;;;;;;5052423;28;20381;-66
2023/04/21 08:20:48;;;;;;;4.57;2.35;;;;;;;;;;5052291;28;20455;-66
2023/04/21 08:23:15;;;;;;;6.63;2.60;;;;;;;;;;5052610;28;20035;-66
2023/04/21 08:25:41;;;;;;;5.28;2.50;;;;;;;;;;5052093;28;20047;-66
2023/04/21 08:28:08;;;;;;;3.65;2.35;;;;;;;;;;5052167;28;20025;-66
2023/04/21 08:30:34;;;;;;;5.35;2.70;;;;;;;;;;5052027;28;20031;-65
2023/04/21 08:33:00;;;;;;;3.65;2.20;;;;;;;;;;5052400;28;20037;-67
2023/04/21 08:35:27;;;;;;;5.60;2.28;;;;;;;;;;5050785;28;20047;-66
2023/04/21 08:37:53;;;;;;;3.47;2.20;;;;;;;;;;5050727;28;20029;-66
2023/04/21 08:40:19;;;;;;;4.50;2.05;;;;;;;;;;5052216;28;20035;-66
2023/04/21 08:42:46;;;;;;;9.88;2.88;;;;;;;;;;5051178;28;20024;-66
2023/04/21 08:45:12;;;;;;;4.68;2.00;;;;;;;;;;5051761;28;20059;-66
2023/04/21 08:47:40;;;;;;;5.13;2.00;;;;;;;;;;5052194;28;20024;-66
2023/04/21 08:50:11;;;;;;;6.22;2.30;;;;;;;;;;5051906;28;20082;-66
2023/04/21 08:52:37;;;;;;;;;;;;;;;;;;5052312;28;20035;-66
2023/04/21 08:55:06;;;;;;;6.40;2.15;;;;;;;;;;5051514;28;19905;-66
2023/04/21 08:57:32;;;;;;;3.10;1.92;;;;;;;;;;5052389;28;20037;-65
2023/04/21 08:59:59;;;;;;;6.80;2.15;;;;;;;;;;5051425;28;20020;-66
2023/04/21 09:02:25;;;;;;;3.67;1.67;;;;;;;;;;5051023;28;20031;-65
2023/04/21 09:04:53;;;;;;;3.17;1.92;;;;;;;;;;5051659;28;20416;-66
2023/04/21 09:07:32;;;;;;;3.83;2.28;;;;;;;;;;5051411;28;20021;-66
2023/04/21 09:09:59;;;;;;;5.95;2.20;;;;;;;;;;5051494;28;20029;-66
2023/04/21 09:12:26;;;;;;;4.63;2.28;;;;;;;;;;5051279;28;20387;-64
2023/04/21 09:14:53;;;;;;;4.95;2.00;;;;;;;;;;5051440;28;20045;-64
2023/04/21 09:17:22;;;;;;;6.45;1.98;;;;;;;;;;5051509;28;20044;-64
2023/04/21 09:19:48;;;;;;;5.65;2.00;;;;;;;;;;5051213;28;20428;-64
2023/04/21 09:22:16;;;;;;;4.22;2.20;;;;;;;;;;5050942;28;20028;-64
2023/04/21 09:24:48;;;;;;;5.78;2.00;;;;;;;;;;5051163;28;20035;-64
2023/04/21 09:27:16;;;;;;;5.97;2.30;;;;;;;;;;5052061;28;20032;-66
2023/04/21 09:29:46;;;;;;;4.50;1.77;;;;;;;;;;5051084;28;20064;-66
2023/04/21 09:32:16;;;;;;;4.68;1.73;;;;;;;;;;5051087;28;20070;-64
2023/04/21 09:34:43;;;;;;;5.73;2.17;;;;;;;;;;5051115;28;20033;-64
2023/04/21 09:37:10;;;;;;;4.88;1.70;;;;;;;;;;5051147;28;20017;-64
2023/04/21 09:39:37;;;;;;;5.28;1.90;;;;;;;;;;5052262;28;20017;-64
2023/04/21 09:42:03;;;;;;;6.80;2.40;;;;;;;;;;5050909;28;20021;-64
2023/04/21 09:44:30;;;;;;;3.53;1.65;;;;;;;;;;5051417;28;20025;-66
2023/04/21 09:47:01;;;;;;;8.32;1.88;;;;;;;;;;5050997;28;20041;-65
2023/04/21 09:49:30;;;;;;;5.57;1.80;;;;;;;;;;5050883;28;20023;-63
2023/04/21 09:51:59;;;;;;;4.88;1.70;;;;;;;;;;5053997;28;20021;-66
2023/04/21 09:54:33;;;;;;;3.93;1.93;;;;;;;;;;5051142;28;20041;-66
2023/04/21 09:57:01;;;;;;;5.40;1.73;;;;;;;;;;5050963;28;20047;-66
2023/04/21 09:59:35;;;;;;;6.38;2.08;;;;;;;;;;5050613;28;20047;-66
2023/04/21 10:02:04;;;;;;;4.25;1.85;;;;;;;;;;5051777;28;20014;-66
2023/04/21 10:04:31;;;;;;;3.28;1.80;;;;;;;;;;5050358;28;20017;-66
2023/04/21 10:06:59;;;;;;;4.93;1.83;;;;;;;;;;5049939;28;20389;-66
2023/04/21 10:09:27;;;;;;;2.13;1.48;;;;;;;;;;5050568;28;20032;-66
2023/04/21 10:11:54;;;;;;;3.78;1.95;;;;;;;;;;5050986;28;20041;-66
2023/04/21 10:14:20;;;;;;;5.95;2.10;;;;;;;;;;5049810;28;20033;-66
2023/04/21 10:16:55;;;;;;;9.25;1.70;;;;;;;;;;5050725;28;20040;-66
2023/04/21 10:19:23;;;;;;;3.22;1.60;;;;;;;;;;5050654;28;20029;-66
2023/04/21 10:21:50;;;;;;;3.47;1.50;;;;;;;;;;5050341;28;20037;-65
2023/04/21 10:24:16;;;;;;;7.72;1.92;;;;;;;;;;5050616;28;20021;-65
2023/04/21 10:26:42;;;;;;;1.95;1.50;;;;;;;;;;5050520;28;20029;-65
2023/04/21 10:29:09;;;;;;;5.40;1.90;;;;;;;;;;5050472;28;20049;-65
2023/04/21 10:31:36;;;;;;;5.55;1.80;;;;;;;;;;5050801;28;20029;-65
2023/04/21 10:34:06;;;;;;;5.60;1.77;;;;;;;;;;5050524;28;20051;-65
2023/04/21 10:36:36;;;;;;;8.33;2.30;;;;;;;;;;5049963;28;20367;-65
2023/04/21 10:39:03;;;;;;;3.47;1.60;;;;;;;;;;5050787;28;20013;-66
2023/04/21 10:41:29;;;;;;;5.28;1.60;;;;;;;;;;5050509;28;20029;-65
2023/04/21 10:44:12;;;;;;;3.05;1.75;;;;;;;;;;5050464;28;20021;-65
2023/04/21 10:46:39;;;;;;;5.88;2.13;;;;;;;;;;5050510;28;20033;-66
2023/04/21 10:49:09;;;;;;;6.25;2.17;;;;;;;;;;5050101;28;20367;-66
2023/04/21 10:51:53;;;;;;;4.63;2.05;;;;;;;;;;5050294;28;20051;-66
2023/04/21 10:54:26;;;;;;;6.05;2.40;;;;;;;;;;5050274;28;20043;-65
2023/04/21 10:56:55;;;;;;;8.70;2.60;;;;;;;;;;5050046;28;20035;-65
2023/04/21 10:59:22;;;;;;;8.35;2.13;;;;;;;;;;5050178;28;20025;-66
2023/04/21 11:01:48;;;;;;;6.78;2.10;;;;;;;;;;5050330;28;20029;-65
2023/04/21 11:04:18;;;;;;;5.80;1.95;;;;;;;;;;5049895;28;20036;-65
2023/04/21 11:07:06;;;;;;;6.30;2.33;;;;;;;;;;5051924;28;20020;-65
2023/04/21 11:09:33;;;;;;;8.27;2.25;;;;;;;;;;5053282;28;20487;-65
2023/04/21 11:12:01;;;;;;;4.53;2.13;;;;;;;;;;5053551;28;20486;-66
2023/04/21 11:14:28;;;;;;;5.43;1.98;;;;;;;;;;5052210;28;20032;-66
2023/04/21 11:16:54;;;;;;;9.32;2.20;;;;;;;;;;5053523;28;20025;-65
2023/04/21 11:19:23;;;;;;;8.75;2.20;;;;;;;;;;5053315;28;20039;-66
2023/04/21 11:21:49;;;;;;;6.80;2.10;;;;;;;;;;5051842;28;20029;-66
2023/04/21 11:24:15;;;;;;;6.05;2.20;;;;;;;;;;5053800;28;20017;-66
2023/04/21 11:26:42;;;;;;;9.07;2.33;;;;;;;;;;5053555;28;20029;-66
2023/04/21 11:29:10;;;;;;;5.22;1.90;;;;;;;;;;5053114;28;20033;-65
2023/04/21 11:31:38;;;;;;;10.02;2.22;;;;;;;;;;5053448;28;20037;-66
2023/04/21 11:34:05;;;;;;;13.95;2.45;;;;;;;;;;5052735;28;20029;-64
2023/04/21 11:36:36;;;;;;;8.98;2.10;;;;;;;;;;5052117;28;20028;-65
2023/04/21 11:39:02;;;;;;;;;;;;;;;;;;5052735;28;20043;-66
2023/04/21 11:41:28;;;;;;;9.13;2.40;;;;;;;;;;5052495;28;19913;-66
2023/04/21 11:43:55;;;;;;;8.13;2.28;;;;;;;;;;5052069;28;20035;-66
2023/04/21 11:46:25;;;;;;;6.70;1.92;;;;;;;;;;5051731;28;20047;-66
2023/04/21 11:48:58;;;;;;;4.45;1.63;;;;;;;;;;5052539;28;20481;-66
2023/04/21 11:51:24;;;;;;;7.97;1.95;;;;;;;;;;5032634;28;20397;-66
2023/04/21 11:53:51;;;;;;;7.10;1.70;;;;;;;;;;5032908;28;20543;-66
2023/04/21 11:56:18;;;;;;;10.00;1.95;;;;;;;;;;5044699;28;20021;-66
2023/04/21 11:58:45;;;;;;;5.93;1.85;;;;;;;;;;5049360;28;20032;-66
2023/04/21 12:01:15;;;;;;;8.63;2.38;;;;;;;;;;5052846;28;20024;-66
2023/04/21 12:03:41;;;;;;;9.00;2.20;;;;;;;;;;5050150;28;20033;-65
2023/04/21 12:06:07;;;;;;;5.90;2.08;;;;;;;;;;5044052;28;20021;-65
2023/04/21 12:08:34;;;;;;;4.45;2.00;;;;;;;;;;5052623;28;20029;-65
2023/04/21 12:11:02;;;;;;;6.55;1.70;;;;;;;;;;5052852;28;20036;-65
2023/04/21 12:13:30;;;;;;;6.40;2.28;;;;;;;;;;5052746;28;20074;-66
2023/04/21 12:15:56;;;;;;;7.82;1.80;;;;;;;;;;5052618;28;20032;-66
2023/04/21 12:18:26;;;;;;;6.03;1.83;;;;;;;;;;5051886;28;20383;-66
2023/04/21 12:20:52;;;;;;;6.93;2.22;;;;;;;;;;5052828;28;20032;-65
2023/04/21 12:23:19;;;;;;;12.98;2.28;;;;;;;;;;5052381;28;20367;-65
2023/04/21 12:25:46;;;;;;;9.65;2.22;;;;;;;;;;5052517;28;20021;-65
2023/04/21 12:28:16;;;;;;;5.43;1.95;;;;;;;;;;5052014;28;20576;-65
2023/04/21 12:30:42;;;;;;;6.87;2.13;;;;;;;;;;5051339;28;20397;-65
2023/04/21 12:33:08;;;;;;;12.98;2.22;;;;;;;;;;5051278;28;20029;-63
2023/04/21 12:35:35;;;;;;;7.68;2.80;;;;;;;;;;5067516;28;20494;-64
2023/04/21 12:38:01;;;;;;;8.73;2.70;;;;;;;;;;5052141;28;20025;-65
2023/04/21 12:40:27;;;;;;;5.53;2.25;;;;;;;;;;5051779;28;20039;-65
2023/04/21 12:42:54;;;;;;;6.68;2.28;;;;;;;;;;5052217;28;20039;-65
2023/04/21 12:45:20;;;;;;;8.65;2.03;;;;;;;;;;5051696;28;20031;-65
2023/04/21 12:47:46;;;;;;;9.55;2.28;;;;;;;;;;5052111;28;20078;-65
2023/04/21 12:50:13;;;;;;;5.20;1.90;;;;;;;;;;5051779;28;20407;-66
2023/04/21 12:52:39;;;;;;;7.03;1.80;;;;;;;;;;5051570;28;20485;-65
2023/04/21 12:55:05;;;;;;;6.50;2.35;;;;;;;;;;5051577;28;20051;-66
2023/04/21 12:57:32;;;;;;;6.43;2.10;;;;;;;;;;5051627;28;20050;-64
2023/04/21 12:59:58;;;;;;;4.28;1.50;;;;;;;;;;5050809;28;20482;-65
2023/04/21 13:02:24;;;;;;;5.82;1.80;;;;;;;;;;5051593;28;20074;-66
2023/04/21 13:04:51;;;;;;;5.28;1.60;;;;;;;;;;5051608;28;20025;-65
2023/04/21 13:07:20;;;;;;;3.35;1.55;;;;;;;;;;5051086;28;20516;-66
2023/04/21 13:09:46;;;;;;;10.07;1.90;;;;;;;;;;5051649;28;20051;-66
2023/04/21 13:12:12;;;;;;;4.57;1.88;;;;;;;;;;5051309;28;20047;-65
2023/04/21 13:14:39;;;;;;;8.48;2.00;;;;;;;;;;5051167;28;20041;-65
2023/04/21 13:17:05;;;;;;;4.22;1.65;;;;;;;;;;5051241;28;20028;-66
2023/04/21 13:19:31;;;;;;;5.07;1.50;;;;;;;;;;5037780;28;20067;-66
2023/04/21 13:21:58;;;;;;;3.78;1.15;;;;;;;;;;5039502;28;20029;-65
2023/04/21 13:24:25;;;;;;;4.85;1.27;;;;;;;;;;5051112;28;20474;-65
2023/04/21 13:26:52;;;;;;;2.88;1.00;;;;;;;;;;5051116;28;20025;-65
2023/04/21 13:29:18;;;;;;;4.00;1.20;;;;;;;;;;5050045;28;20045;-65
2023/04/21 13:31:44;;;;;;;5.00;1.00;;;;;;;;;;5050562;28;20389;-65
2023/04/21 13:34:11;;;;;;;7.35;1.30;;;;;;;;;;5051037;28;20043;-65
2023/04/21 13:36:37;;;;;;;4.03;1.10;;;;;;;;;;5050723;28;20021;-66
2023/04/21 13:39:04;;;;;;;4.35;1.25;;;;;;;;;;5050576;28;20074;-65
2023/04/21 13:41:30;;;;;;;2.97;0.90;;;;;;;;;;5050650;28;20020;-65
2023/04/21 13:43:57;;;;;;;1.92;1.08;;;;;;;;;;5049812;28;20036;-65
2023/04/21 13:46:23;;;;;;;6.88;1.25;;;;;;;;;;5050558;28;20025;-66
2023/04/21 13:48:50;;;;;;;5.53;1.50;;;;;;;;;;5050201;28;20025;-65
2023/04/21 13:51:17;;;;;;;4.68;1.45;;;;;;;;;;5050738;28;20515;-66
2023/04/21 13:53:44;;;;;;;8.18;1.75;;;;;;;;;;5050592;28;20039;-66
2023/04/21 13:56:12;;;;;;;9.23;1.95;;;;;;;;;;5050707;28;20021;-64
2023/04/21 13:58:39;;;;;;;8.15;1.90;;;;;;;;;;5049898;28;20033;-66
2023/04/21 14:01:05;;;;;;;9.60;1.50;;;;;;;;;;5050605;28;20059;-65
2023/04/21 14:03:31;;;;;;;7.70;1.88;;;;;;;;;;5048840;28;20032;-64
2023/04/21 14:05:57;;;;;;;6.40;1.70;;;;;;;;;;5048629;28;20393;-65
2023/04/21 14:08:24;;;;;;;5.88;1.48;;;;;;;;;;5050571;28;20022;-65
2023/04/21 14:10:51;;;;;;;11.43;1.90;;;;;;;;;;5049565;28;20023;-65
2023/04/21 14:13:17;;;;;;;6.75;1.83;;;;;;;;;;5049841;28;20037;-65
2023/04/21 14:15:43;;;;;;;7.22;2.10;;;;;;;;;;5050660;28;20032;-64
2023/04/21 14:18:09;;;;;;;7.18;2.15;;;;;;;;;;5049828;28;20021;-65
2023/04/21 14:20:37;;;;;;;10.65;2.00;;;;;;;;;;5050056;28;20032;-63
2023/04/21 14:23:04;;;;;;;12.75;2.20;;;;;;;;;;5048605;28;20033;-65
2023/04/21 14:25:30;;;;;;;6.90;2.03;;;;;;;;;;5048995;28;20021;-65
2023/04/21 14:27:56;;;;;;;7.70;1.90;;;;;;;;;;5049194;28;20029;-65
2023/04/21 14:30:23;;;;;;;10.10;1.85;;;;;;;;;;5049430;28;20045;-65
2023/04/21 14:32:49;;;;;;;7.35;1.80;;;;;;;;;;5049508;28;20029;-66
2023/04/21 14:35:15;;;;;;;6.45;1.80;;;;;;;;;;5049692;28;20090;-65
2023/04/21 14:37:42;;;;;;;7.03;1.90;;;;;;;;;;5050541;28;20091;-65
2023/04/21 14:40:09;;;;;;;8.73;2.20;;;;;;;;;;5051635;28;20039;-64
2023/04/21 14:42:35;;;;;;;7.85;1.70;;;;;;;;;;5054493;28;20417;-65